createdAt,value
2018-09-11T00:02:13.992Z,3.70
2018-09-11T00:04:42.362Z,3.50
2018-09-11T00:07:10.998Z,3.60
2018-09-11T00:09:39.386Z,3.50
2018-09-11T00:12:07.786Z,4.10
2018-09-11T00:14:36.441Z,4.07
2018-09-11T00:17:04.975Z,3.63
2018-09-11T00:19:33.406Z,3.73
2018-09-11T00:22:01.828Z,4.03
2018-09-11T00:24:30.207Z,3.67
2018-09-11T00:26:58.602Z,3.60
2018-09-11T00:29:27.012Z,3.67
2018-09-11T00:31:55.636Z,4.37
2018-09-11T00:34:24.123Z,3.57
2018-09-11T00:36:52.556Z,4.00
2018-09-11T00:39:20.960Z,3.90
2018-09-11T00:41:49.614Z,3.77
2018-09-11T00:44:18.118Z,4.20
2018-09-11T00:46:46.531Z,3.80
2018-09-11T00:49:14.941Z,3.57
2018-09-11T00:51:43.370Z,4.27
2018-09-11T00:54:11.782Z,3.80
2018-09-11T00:56:40.171Z,3.60
2018-09-11T00:59:08.612Z,4.47
2018-09-11T01:01:37.018Z,3.77
2018-09-11T01:04:05.406Z,3.37
2018-09-11T01:06:33.819Z,4.27
2018-09-11T01:09:02.436Z,3.63
2018-09-11T01:11:31.135Z,4.23
2018-09-11T01:13:59.855Z,4.50
2018-09-11T01:16:28.568Z,4.00
2018-09-11T01:18:57.286Z,4.00
2018-09-11T01:21:25.794Z,4.87
2018-09-11T01:23:54.195Z,4.20
2018-09-11T01:26:22.609Z,3.87
2018-09-11T01:28:51.035Z,4.30
2018-09-11T01:31:19.643Z,3.90
2018-09-11T01:33:48.131Z,3.53
2018-09-11T01:36:16.574Z,3.60
2018-09-11T01:38:44.956Z,3.57
2018-09-11T01:41:13.557Z,3.77
2018-09-11T01:43:42.086Z,3.57
2018-09-11T01:46:10.483Z,3.63
2018-09-11T01:48:38.907Z,3.43
2018-09-11T01:51:07.548Z,4.03
2018-09-11T01:53:36.046Z,3.30
2018-09-11T01:56:04.741Z,3.63
2018-09-11T01:58:33.458Z,3.80
2018-09-11T02:01:01.976Z,3.23
2018-09-11T02:03:30.372Z,4.00
2018-09-11T02:05:59.028Z,3.13
2018-09-11T02:08:27.422Z,3.60
2018-09-11T02:10:55.846Z,3.50
2018-09-11T02:13:24.271Z,3.70
2018-09-11T02:15:52.679Z,3.40
2018-09-11T02:18:21.312Z,4.10
2018-09-11T02:20:49.827Z,3.30
2018-09-11T02:23:18.226Z,4.27
2018-09-11T02:25:46.634Z,3.80
2018-09-11T02:28:15.277Z,3.83
2018-09-11T02:30:43.767Z,3.83
2018-09-11T02:33:12.172Z,3.70
2018-09-11T02:35:40.622Z,3.90
2018-09-11T02:38:08.964Z,3.90
2018-09-11T02:40:37.583Z,3.60
2018-09-11T02:43:06.111Z,4.00
2018-09-11T02:45:34.515Z,4.30
2018-09-11T02:48:02.914Z,3.93
2018-09-11T02:50:31.388Z,3.90
2018-09-11T02:52:59.823Z,4.60
2018-09-11T02:55:28.219Z,4.40
2018-09-11T02:57:56.866Z,4.67
2018-09-11T03:00:25.339Z,4.47
2018-09-11T03:02:53.760Z,4.77
2018-09-11T03:05:22.195Z,4.40
2018-09-11T03:07:50.579Z,5.23
2018-09-11T03:10:19.213Z,5.33
2018-09-11T03:12:47.699Z,4.80
2018-09-11T03:15:16.083Z,5.60
2018-09-11T03:17:44.468Z,4.90
2018-09-11T03:20:13.124Z,5.67
2018-09-11T03:22:41.824Z,5.47
2018-09-11T03:25:10.530Z,5.90
2018-09-11T03:27:39.244Z,5.77
2018-09-11T03:30:07.858Z,6.30
2018-09-11T03:32:36.284Z,5.50
2018-09-11T03:35:04.867Z,5.93
2018-09-11T03:37:33.329Z,5.50
2018-09-11T03:40:01.733Z,6.23
2018-09-11T03:42:30.211Z,5.87
2018-09-11T03:44:58.603Z,6.33
2018-09-11T03:47:27.016Z,5.83
2018-09-11T03:49:55.664Z,6.27
2018-09-11T03:52:24.148Z,5.70
2018-09-11T03:54:52.553Z,5.87
2018-09-11T03:57:20.967Z,6.07
2018-09-11T03:59:49.756Z,6.40
2018-09-11T04:02:18.234Z,6.17
2018-09-11T04:04:46.643Z,6.60
2018-09-11T04:07:15.036Z,6.67
2018-09-11T04:09:43.434Z,6.23
2018-09-11T04:12:11.847Z,6.43
2018-09-11T04:14:40.249Z,6.77
2018-09-11T04:17:08.651Z,6.97
2018-09-11T04:19:37.287Z,4.27
2018-09-11T04:22:05.746Z,6.47
2018-09-11T04:24:34.287Z,6.57
2018-09-11T04:27:02.699Z,6.93
2018-09-11T04:29:31.091Z,7.10
2018-09-11T04:31:59.523Z,6.93
2018-09-11T04:34:27.923Z,7.43
2018-09-11T04:36:56.320Z,7.17
2018-09-11T04:39:24.731Z,7.70
2018-09-11T04:41:53.155Z,7.10
2018-09-11T04:44:21.551Z,6.87
2018-09-11T04:46:49.931Z,7.03
2018-09-11T04:49:18.347Z,7.30
2018-09-11T04:51:46.759Z,7.47
2018-09-11T04:54:15.150Z,6.70
2018-09-11T04:56:43.571Z,7.83
2018-09-11T04:59:11.979Z,7.70
2018-09-11T05:01:40.514Z,7.60
2018-09-11T05:04:08.916Z,7.63
2018-09-11T05:06:37.323Z,7.43
2018-09-11T05:09:07.203Z,7.40
2018-09-11T05:11:35.863Z,7.03
2018-09-11T05:14:04.275Z,8.03
2018-09-11T05:16:32.651Z,7.60
2018-09-11T05:19:01.082Z,7.90
2018-09-11T05:21:29.699Z,8.10
2018-09-11T05:23:58.188Z,7.53
2018-09-11T05:26:26.619Z,8.00
2018-09-11T05:28:55.006Z,8.23
2018-09-11T05:31:23.387Z,7.23
2018-09-11T05:33:51.795Z,7.73
2018-09-11T05:36:20.183Z,8.40
2018-09-11T05:38:48.625Z,7.50
2018-09-11T05:41:17.211Z,8.43
2018-09-11T05:43:45.591Z,8.47
2018-09-11T05:46:13.996Z,8.13
2018-09-11T05:48:42.409Z,7.47
2018-09-11T05:51:10.798Z,8.77
2018-09-11T05:53:39.183Z,8.43
2018-09-11T05:56:07.591Z,8.23
2018-09-11T05:58:36.027Z,8.60
2018-09-11T06:01:04.443Z,9.10
2018-09-11T06:03:32.855Z,8.83
2018-09-11T06:06:01.464Z,8.47
2018-09-11T06:08:29.966Z,8.33
2018-09-11T06:10:58.363Z,8.90
2018-09-11T06:13:26.748Z,8.13
2018-09-11T06:15:55.151Z,8.57
2018-09-11T06:18:23.566Z,8.07
2018-09-11T06:20:52.032Z,8.03
2018-09-11T06:23:20.451Z,8.47
2018-09-11T06:25:49.095Z,7.73
2018-09-11T06:28:17.824Z,7.80
2018-09-11T06:30:46.363Z,8.47
2018-09-11T06:33:14.869Z,9.03
2018-09-11T06:35:43.277Z,8.07
2018-09-11T06:38:12.116Z,8.13
2018-09-11T06:40:40.888Z,8.30
2018-09-11T06:43:09.636Z,7.73
2018-09-11T06:45:38.192Z,7.40
2018-09-11T06:48:06.627Z,6.87
2018-09-11T06:50:35.307Z,6.67
2018-09-11T06:53:03.787Z,6.00
2018-09-11T06:55:32.227Z,6.70
2018-09-11T06:58:00.670Z,6.27
2018-09-11T07:00:29.405Z,6.17
2018-09-11T07:02:58.094Z,5.60
2018-09-11T07:05:26.823Z,6.03
2018-09-11T07:07:55.540Z,5.57
2018-09-11T07:10:24.072Z,5.90
2018-09-11T07:12:52.519Z,6.20
2018-09-11T07:15:20.934Z,6.47
2018-09-11T07:17:49.592Z,6.10
2018-09-11T07:20:18.370Z,5.97
2018-09-11T07:22:46.759Z,5.93
2018-09-11T07:25:15.500Z,6.07
2018-09-11T07:27:43.991Z,5.53
2018-09-11T07:30:12.383Z,5.77
2018-09-11T07:32:40.852Z,5.30
2018-09-11T07:35:09.480Z,5.80
2018-09-11T07:37:38.226Z,5.27
2018-09-11T07:40:06.912Z,5.73
2018-09-11T07:42:35.668Z,5.57
2018-09-11T07:45:04.218Z,5.53
2018-09-11T07:47:32.901Z,6.80
2018-09-11T07:50:01.624Z,5.87
2018-09-11T07:52:40.275Z,6.77
2018-09-11T07:55:08.896Z,6.10
2018-09-11T07:57:37.392Z,5.70
2018-09-11T08:00:06.019Z,5.57
2018-09-11T08:02:34.571Z,6.37
2018-09-11T08:05:02.979Z,6.60
2018-09-11T08:07:31.409Z,6.03
2018-09-11T08:10:00.085Z,5.87
2018-09-11T08:12:28.895Z,5.70
2018-09-11T08:14:57.415Z,6.20
2018-09-11T08:17:26.041Z,6.53
2018-09-11T08:19:54.570Z,6.80
2018-09-11T08:22:23.257Z,6.20
2018-09-11T08:24:51.976Z,6.33
2018-09-11T08:27:20.682Z,6.90
2018-09-11T08:29:49.528Z,6.53
2018-09-11T08:32:18.107Z,7.20
2018-09-11T08:34:46.612Z,6.80
2018-09-11T08:37:15.286Z,7.23
2018-09-11T08:39:44.002Z,7.07
2018-09-11T08:42:12.499Z,7.20
2018-09-11T08:44:41.182Z,7.57
2018-09-11T08:47:09.685Z,6.77
2018-09-11T08:49:38.085Z,7.07
2018-09-11T08:52:07.309Z,6.93
2018-09-11T08:54:36.299Z,6.37
2018-09-11T08:57:04.840Z,6.97
2018-09-11T08:59:33.283Z,6.87
2018-09-11T09:02:06.965Z,11.07
2018-09-11T09:04:35.700Z,6.50
2018-09-11T09:07:04.199Z,6.50
2018-09-11T09:09:32.615Z,6.47
2018-09-11T09:12:01.360Z,10.00
2018-09-11T09:14:30.104Z,6.27
2018-09-11T09:16:58.589Z,5.77
2018-09-11T09:19:27.228Z,5.87
2018-09-11T09:21:56.169Z,7.10
2018-09-11T09:24:24.880Z,8.80
2018-09-11T09:26:53.630Z,8.27
2018-09-11T09:29:22.183Z,5.73
2018-09-11T09:31:50.880Z,5.43
2018-09-11T09:34:19.623Z,5.37
2018-09-11T09:36:48.171Z,5.63
2018-09-11T09:41:59.584Z,5.53
2018-09-11T09:44:27.980Z,4.73
2018-09-11T09:46:56.410Z,4.87
2018-09-11T09:49:25.052Z,5.33
2018-09-11T09:51:53.832Z,4.87
2018-09-11T09:54:22.551Z,9.60
2018-09-11T09:56:51.294Z,4.47
2018-09-11T09:59:20.011Z,4.60
2018-09-11T10:01:54.246Z,4.97
2018-09-11T10:04:22.864Z,5.30
2018-09-11T10:06:51.575Z,4.63
2018-09-11T10:09:20.327Z,4.30
2018-09-11T10:11:49.119Z,4.17
2018-09-11T10:14:17.606Z,3.70
2018-09-11T10:16:46.026Z,4.17
2018-09-11T10:19:14.418Z,4.07
2018-09-11T10:21:43.156Z,4.40
2018-09-11T10:24:11.889Z,3.97
2018-09-11T10:26:40.407Z,3.70
2018-09-11T10:29:08.814Z,3.73
2018-09-11T10:31:37.466Z,4.00
2018-09-11T10:34:05.948Z,4.30
2018-09-11T10:36:34.354Z,7.53
2018-09-11T10:39:03.350Z,4.03
2018-09-11T10:41:31.959Z,3.60
2018-09-11T10:44:00.443Z,3.63
2018-09-11T10:46:29.093Z,3.37
2018-09-11T10:48:57.835Z,3.40
2018-09-11T10:51:26.453Z,3.37
2018-09-11T10:53:54.906Z,3.83
2018-09-11T10:56:23.504Z,3.43
2018-09-11T10:58:52.198Z,3.90
2018-09-11T11:01:25.976Z,3.50
2018-09-11T11:03:54.473Z,3.30
2018-09-11T11:06:22.888Z,3.90
2018-09-11T11:08:51.540Z,3.83
2018-09-11T11:11:20.299Z,3.73
2018-09-11T11:13:49.065Z,2.93
2018-09-11T11:16:17.690Z,3.50
2018-09-11T11:18:46.825Z,3.53
2018-09-11T11:21:16.152Z,3.90
2018-09-11T11:23:44.741Z,3.90
2018-09-11T11:26:13.330Z,3.57
2018-09-11T11:28:41.847Z,3.90
2018-09-11T11:31:10.588Z,3.57
2018-09-11T11:33:39.665Z,4.27
2018-09-11T11:36:08.344Z,3.37
2018-09-11T11:38:37.000Z,3.53
2018-09-11T11:41:05.634Z,4.10
2018-09-11T11:43:34.169Z,3.80
2018-09-11T11:46:02.597Z,3.77
2018-09-11T11:48:31.312Z,4.27
2018-09-11T11:51:00.157Z,4.30
2018-09-11T11:53:28.892Z,3.90
2018-09-11T11:55:57.394Z,4.13
2018-09-11T11:58:26.061Z,3.87
2018-09-11T12:00:54.643Z,9.47
2018-09-11T12:03:23.034Z,4.13
2018-09-11T12:05:51.742Z,4.33
2018-09-11T12:08:20.243Z,4.07
2018-09-11T12:10:48.645Z,3.93
2018-09-11T12:13:17.253Z,3.70
2018-09-11T12:15:45.812Z,4.47
2018-09-11T12:18:14.231Z,3.37
2018-09-11T12:20:42.848Z,3.50
2018-09-11T12:23:11.491Z,3.50
2018-09-11T12:25:40.286Z,4.47
2018-09-11T12:28:23.572Z,3.90
2018-09-11T12:30:52.610Z,3.67
2018-09-11T12:33:21.372Z,4.17
2018-09-11T12:35:49.908Z,9.60
2018-09-11T12:38:18.400Z,3.53
2018-09-11T12:40:46.827Z,3.87
2018-09-11T12:43:15.497Z,3.77
2018-09-11T12:45:44.277Z,3.40
2018-09-11T12:48:13.202Z,3.20
2018-09-11T12:50:41.504Z,3.90
2018-09-11T12:53:10.267Z,4.07
2018-09-11T12:55:39.024Z,6.00
2018-09-11T12:58:07.559Z,3.80
2018-09-11T13:00:36.623Z,3.70
2018-09-11T13:03:05.540Z,4.13
2018-09-11T13:05:34.291Z,3.97
2018-09-11T13:08:03.051Z,4.03
2018-09-11T13:10:31.884Z,4.17
2018-09-11T13:13:00.399Z,3.83
2018-09-11T13:15:28.803Z,3.63
2018-09-11T13:17:57.432Z,3.90
2018-09-11T13:20:31.247Z,3.80
2018-09-11T13:22:59.996Z,4.50
2018-09-11T13:25:28.657Z,4.37
2018-09-11T13:27:56.985Z,4.03
2018-09-11T13:30:25.728Z,4.17
2018-09-11T13:32:54.230Z,4.20
2018-09-11T13:35:22.647Z,3.87
2018-09-11T13:37:51.054Z,3.80
2018-09-11T13:40:19.520Z,4.00
2018-09-11T13:42:48.156Z,3.50
2018-09-11T13:45:16.653Z,3.70
2018-09-11T13:47:45.300Z,3.90
2018-09-11T13:50:13.869Z,3.63
2018-09-11T13:52:42.716Z,4.07
2018-09-11T13:55:11.598Z,4.27
2018-09-11T13:57:40.319Z,4.30
2018-09-11T14:00:08.810Z,4.37
2018-09-11T14:02:37.428Z,4.67
2018-09-11T14:05:06.163Z,4.03
2018-09-11T14:07:34.683Z,4.70
2018-09-11T14:10:03.781Z,5.40
2018-09-11T14:12:32.337Z,5.93
2018-09-11T14:15:00.724Z,4.83
2018-09-11T14:17:29.135Z,5.57
2018-09-11T14:19:57.560Z,4.87
2018-09-11T14:22:26.276Z,4.90
2018-09-11T14:24:54.826Z,5.10
2018-09-11T14:27:23.484Z,4.93
2018-09-11T14:29:52.210Z,5.60
2018-09-11T14:32:20.741Z,5.27
2018-09-11T14:34:49.157Z,5.23
2018-09-11T14:37:17.770Z,4.77
2018-09-11T14:39:46.266Z,4.80
2018-09-11T14:42:14.815Z,5.20
2018-09-11T14:44:43.525Z,5.73
2018-09-11T14:47:12.224Z,5.83
2018-09-11T14:49:40.750Z,5.87
2018-09-11T14:52:09.165Z,6.80
2018-09-11T14:57:20.817Z,6.50
2018-09-11T14:59:49.194Z,7.17
2018-09-11T15:02:18.005Z,8.17
2018-09-11T15:04:46.523Z,7.63
2018-09-11T15:07:15.156Z,8.53
2018-09-11T15:09:43.887Z,8.77
2018-09-11T15:12:12.414Z,9.50
2018-09-11T15:14:40.815Z,10.20
2018-09-11T15:17:09.448Z,10.57
2018-09-11T15:19:38.180Z,9.90
2018-09-11T15:22:06.723Z,10.30
2018-09-11T15:24:35.139Z,10.53
2018-09-11T15:27:03.800Z,10.53
2018-09-11T15:29:32.223Z,10.60
2018-09-11T15:32:00.624Z,13.03
2018-09-11T15:34:29.319Z,11.87
2018-09-11T15:36:57.940Z,12.73
2018-09-11T15:39:26.755Z,14.47
2018-09-11T15:41:55.423Z,12.60
2018-09-11T15:44:24.110Z,17.13
2018-09-11T15:46:52.674Z,18.77
2018-09-11T15:49:21.047Z,17.23
2018-09-11T15:51:49.448Z,18.87
2018-09-11T15:54:18.083Z,20.37
2018-09-11T15:56:46.607Z,23.17
2018-09-11T15:59:15.003Z,25.07
2018-09-11T16:01:48.513Z,26.53
2018-09-11T16:04:16.903Z,27.53
2018-09-11T16:06:45.307Z,27.40
2018-09-11T16:09:13.735Z,27.37
2018-09-11T16:11:42.443Z,30.70
2018-09-11T16:14:11.649Z,30.10
2018-09-11T16:16:40.211Z,31.57
2018-09-11T16:19:08.619Z,30.13
2018-09-11T16:21:37.395Z,32.53
2018-09-11T16:24:05.915Z,34.73
2018-09-11T16:26:39.726Z,33.33
2018-09-11T16:29:08.999Z,34.87
2018-09-11T16:31:42.467Z,34.27
2018-09-11T16:34:10.880Z,29.40
2018-09-11T16:36:39.279Z,23.53
2018-09-11T16:39:08.226Z,19.43
2018-09-11T16:41:36.636Z,17.73
2018-09-11T16:44:05.023Z,16.80
2018-09-11T16:46:33.660Z,18.00
2018-09-11T16:49:02.375Z,18.93
2018-09-11T16:51:30.950Z,17.93
2018-09-11T16:53:59.580Z,15.63
2018-09-11T16:56:28.545Z,14.63
2018-09-11T16:58:57.027Z,13.73
2018-09-11T17:01:25.428Z,12.70
2018-09-11T17:03:53.847Z,14.50
2018-09-11T17:06:22.215Z,12.07
2018-09-11T17:08:50.622Z,13.73
2018-09-11T17:11:19.036Z,14.13
2018-09-11T17:13:47.423Z,15.30
2018-09-11T17:16:16.040Z,15.83
2018-09-11T17:18:44.674Z,17.57
2018-09-11T17:21:13.076Z,17.03
2018-09-11T17:23:41.465Z,16.53
2018-09-11T17:26:09.988Z,16.27
2018-09-11T17:28:38.375Z,17.30
2018-09-11T17:31:06.783Z,17.13
2018-09-11T17:33:35.307Z,16.63
2018-09-11T17:36:03.721Z,17.23
2018-09-11T17:38:32.127Z,15.07
2018-09-11T17:41:00.823Z,15.73
2018-09-11T17:43:29.215Z,17.20
2018-09-11T17:45:57.693Z,15.83
2018-09-11T17:48:26.328Z,21.57
2018-09-11T17:50:54.824Z,13.90
2018-09-11T17:53:23.215Z,13.70
2018-09-11T17:55:51.650Z,12.50
2018-09-11T17:58:20.245Z,12.37
2018-09-11T18:00:48.735Z,12.10
2018-09-11T18:03:17.163Z,11.23
2018-09-11T18:05:45.548Z,11.50
2018-09-11T18:08:14.172Z,11.27
2018-09-11T18:10:42.668Z,11.27
2018-09-11T18:13:11.287Z,11.17
2018-09-11T18:15:40.000Z,10.87
2018-09-11T18:18:08.496Z,10.07
2018-09-11T18:20:36.876Z,9.67
2018-09-11T18:23:05.507Z,9.20
2018-09-11T18:25:34.219Z,10.10
2018-09-11T18:28:02.712Z,9.73
2018-09-11T18:30:31.360Z,10.40
2018-09-11T18:33:00.136Z,11.10
2018-09-11T18:35:28.632Z,11.67
2018-09-11T18:37:57.045Z,12.10
2018-09-11T18:40:25.462Z,11.63
2018-09-11T18:42:54.099Z,11.60
2018-09-11T18:45:22.648Z,12.80
2018-09-11T18:47:51.082Z,11.03
2018-09-11T18:50:19.471Z,12.40
2018-09-11T18:52:48.088Z,11.53
2018-09-11T18:55:16.619Z,11.53
2018-09-11T18:57:45.356Z,11.90
2018-09-11T19:00:13.981Z,12.07
2018-09-11T19:02:42.720Z,13.17
2018-09-11T19:05:11.531Z,15.87
2018-09-11T19:07:40.184Z,12.40
2018-09-11T19:10:08.698Z,11.30
2018-09-11T19:12:37.116Z,12.30
2018-09-11T19:15:05.492Z,11.87
2018-09-11T19:17:34.183Z,10.77
2018-09-11T19:20:02.717Z,10.27
2018-09-11T19:22:31.351Z,10.27
2018-09-11T19:25:00.092Z,9.60
2018-09-11T19:27:28.591Z,9.43
2018-09-11T19:29:56.995Z,9.40
2018-09-11T19:32:25.555Z,9.60
2018-09-11T19:34:53.992Z,8.80
2018-09-11T19:37:22.388Z,8.27
2018-09-11T19:39:50.987Z,8.67
2018-09-11T19:42:19.498Z,8.40
2018-09-11T19:44:48.033Z,8.83
2018-09-11T19:47:16.459Z,9.70
2018-09-11T19:49:44.868Z,10.20
2018-09-11T19:52:13.283Z,10.33
2018-09-11T19:54:41.735Z,9.97
2018-09-11T19:57:10.550Z,8.80
2018-09-11T19:59:38.987Z,10.50
2018-09-11T20:02:07.427Z,9.67
2018-09-11T20:04:35.842Z,10.40
2018-09-11T20:07:04.241Z,10.77
2018-09-11T20:09:32.659Z,11.13
2018-09-11T20:12:01.088Z,9.77
2018-09-11T20:14:29.491Z,11.20
2018-09-11T20:16:57.933Z,10.47
2018-09-11T20:19:26.352Z,10.63
2018-09-11T20:21:54.779Z,12.27
2018-09-11T20:24:23.198Z,12.13
2018-09-11T20:26:51.845Z,12.67
2018-09-11T20:29:20.567Z,12.47
2018-09-11T20:31:49.375Z,13.27
2018-09-11T20:34:17.883Z,12.57
2018-09-11T20:36:46.383Z,11.53
2018-09-11T20:39:14.807Z,11.73
2018-09-11T20:41:48.291Z,12.37
2018-09-11T20:44:17.100Z,11.93
2018-09-11T20:46:45.495Z,11.07
2018-09-11T20:49:13.905Z,12.43
2018-09-11T20:51:42.336Z,11.67
2018-09-11T20:54:10.723Z,11.50
2018-09-11T20:56:39.107Z,11.07
2018-09-11T20:59:07.538Z,11.17
2018-09-11T21:01:35.944Z,10.17
2018-09-11T21:04:04.343Z,9.83
2018-09-11T21:06:32.767Z,10.40
2018-09-11T21:09:01.179Z,11.00
2018-09-11T21:11:29.807Z,12.97
2018-09-11T21:13:58.553Z,12.27
2018-09-11T21:16:27.268Z,13.53
2018-09-11T21:18:55.980Z,14.20
2018-09-11T21:21:24.501Z,15.87
2018-09-11T21:23:52.900Z,16.67
2018-09-11T21:26:21.407Z,16.40
2018-09-11T21:28:50.321Z,18.20
2018-09-11T21:31:18.813Z,17.00
2018-09-11T21:33:47.437Z,16.77
2018-09-11T21:36:16.202Z,15.80
2018-09-11T21:38:44.710Z,16.23
2018-09-11T21:41:13.245Z,15.10
2018-09-11T21:43:41.673Z,14.07
2018-09-11T21:46:10.092Z,16.17
2018-09-11T21:48:38.498Z,13.77
2018-09-11T21:51:07.026Z,13.13
2018-09-11T21:53:35.484Z,13.73
2018-09-11T21:56:03.892Z,13.63
2018-09-11T21:58:32.742Z,13.97
2018-09-11T22:01:01.599Z,13.30
2018-09-11T22:03:30.111Z,13.33
2018-09-11T22:05:59.434Z,13.63
2018-09-11T22:08:27.927Z,13.53
2018-09-11T22:10:56.328Z,12.37
2018-09-11T22:13:24.750Z,12.83
2018-09-11T22:15:53.161Z,12.83
2018-09-11T22:18:21.543Z,12.37
2018-09-11T22:20:49.972Z,12.20
2018-09-11T22:23:18.367Z,12.07
2018-09-11T22:25:46.771Z,11.83
2018-09-11T22:28:15.212Z,12.30
2018-09-11T22:30:43.911Z,11.93
2018-09-11T22:33:12.677Z,12.07
2018-09-11T22:35:41.416Z,11.43
2018-09-11T22:38:10.144Z,11.93
2018-09-11T22:40:38.747Z,12.10
2018-09-11T22:43:07.847Z,11.43
2018-09-11T22:45:36.315Z,12.20
2018-09-11T22:48:04.720Z,11.50
2018-09-11T22:50:33.312Z,11.00
2018-09-11T22:53:01.762Z,11.07
2018-09-11T22:55:30.244Z,11.20
2018-09-11T22:57:58.663Z,11.47
2018-09-11T23:00:27.330Z,10.33
2018-09-11T23:02:55.826Z,12.33
2018-09-11T23:05:24.271Z,11.17
2018-09-11T23:07:52.664Z,11.30
2018-09-11T23:10:21.062Z,11.80
2018-09-11T23:12:49.486Z,13.20
2018-09-11T23:15:17.885Z,11.73
2018-09-11T23:17:46.281Z,10.83
2018-09-11T23:20:14.710Z,12.47
2018-09-11T23:22:43.149Z,10.67
2018-09-11T23:25:11.553Z,10.67
2018-09-11T23:27:40.427Z,9.43
2018-09-11T23:30:08.916Z,7.83
2018-09-11T23:32:37.605Z,6.03
2018-09-11T23:35:06.328Z,5.60
2018-09-11T23:37:34.827Z,5.97
2018-09-11T23:40:03.240Z,5.10
2018-09-11T23:42:31.706Z,4.87
2018-09-11T23:45:00.120Z,4.80
2018-09-11T23:47:28.531Z,4.33
2018-09-11T23:49:56.934Z,4.30
2018-09-11T23:52:25.379Z,4.30
2018-09-11T23:54:53.999Z,4.57
2018-09-11T23:57:22.727Z,4.40
2018-09-11T23:59:51.443Z,4.73
